<?xml version="1.0" encoding="UTF-8" standalone="no" ?>
<gpx xmlns="http://www.topografix.com/GPX/1/1" xmlns:xsi="http://www.w3.org/2001/XMLSchema-instance" xsi:schemaLocation="http://www.topografix.com/GPX/1/1 http://www.topografix.com/GPX/1/1/gpx.xsd" version="1.1" creator="VisuGPX - https://www.visugpx.com">
  <metadata>
    <name>10 km permanent PR3  CRET FECHET</name>
  </metadata>
  <trk>
    <name><![CDATA[Traces enregistrées avec OSMTracker pour Android™]]></name>
    <extensions>
      <line xmlns="http://www.topografix.com/GPX/gpx_style/0/2">
        <color>0000FF</color>
        <opacity>1</opacity>
        <width>4</width>
      </line>
    </extensions>
    <trkseg>
      <trkpt lat="45.54887" lon="4.59072">
        <ele>472.9</ele>
        <time>2018-09-20T07:35:26Z</time>
      </trkpt>
      <trkpt lat="45.5489" lon="4.59072">
        <ele>472.8</ele>
      </trkpt>
      <trkpt lat="45.54888" lon="4.59085">
        <ele>471.9</ele>
      </trkpt>
      <trkpt lat="45.54907" lon="4.59091">
        <ele>471.7</ele>
      </trkpt>
      <trkpt lat="45.54924" lon="4.59099">
        <ele>471.8</ele>
        <time>2018-09-20T07:41:42Z</time>
      </trkpt>
      <trkpt lat="45.54942" lon="4.59107">
        <ele>472.2</ele>
      </trkpt>
      <trkpt lat="45.54954" lon="4.59111">
        <ele>472.3</ele>
      </trkpt>
      <trkpt lat="45.54975" lon="4.59115">
        <ele>472.9</ele>
      </trkpt>
      <trkpt lat="45.54999" lon="4.59124">
        <ele>473</ele>
        <time>2018-09-20T07:43:46Z</time>
      </trkpt>
      <trkpt lat="45.55038" lon="4.59147">
        <ele>531.48403847206</ele>
        <time>2018-09-20T07:44:32Z</time>
      </trkpt>
      <trkpt lat="45.55054" lon="4.59157">
        <ele>474.6</ele>
        <time>2018-09-20T07:44:36Z</time>
      </trkpt>
      <trkpt lat="45.55068" lon="4.59165">
        <ele>531.35913966935</ele>
        <time>2018-09-20T07:44:59Z</time>
      </trkpt>
      <trkpt lat="45.55101" lon="4.59188">
        <ele>475.8</ele>
        <time>2018-09-20T07:45:23Z</time>
      </trkpt>
      <trkpt lat="45.55143" lon="4.5922">
        <ele>475.9</ele>
        <time>2018-09-20T07:46:28Z</time>
      </trkpt>
      <trkpt lat="45.55162" lon="4.59233">
        <ele>476.6</ele>
        <time>2018-09-20T07:47:55Z</time>
      </trkpt>
      <trkpt lat="45.55191" lon="4.5925">
        <ele>477.5</ele>
      </trkpt>
      <trkpt lat="45.55239" lon="4.59277">
        <ele>477.1</ele>
      </trkpt>
      <trkpt lat="45.5526" lon="4.59288">
        <ele>476.8</ele>
      </trkpt>
      <trkpt lat="45.55279" lon="4.59297">
        <ele>475.9</ele>
      </trkpt>
      <trkpt lat="45.55321" lon="4.59305">
        <ele>474.5</ele>
      </trkpt>
      <trkpt lat="45.55337" lon="4.59308">
        <ele>473.6</ele>
      </trkpt>
      <trkpt lat="45.55355" lon="4.59307">
        <ele>473.1</ele>
      </trkpt>
      <trkpt lat="45.55394" lon="4.59302">
        <ele>472.2</ele>
        <time>2018-09-20T07:55:08Z</time>
      </trkpt>
      <trkpt lat="45.55444" lon="4.59292">
        <ele>470.9</ele>
        <time>2018-09-20T07:55:54Z</time>
      </trkpt>
      <trkpt lat="45.55474" lon="4.59285">
        <ele>470.1</ele>
        <time>2018-09-20T07:56:36Z</time>
      </trkpt>
      <trkpt lat="45.55494" lon="4.59281">
        <ele>469.1</ele>
      </trkpt>
      <trkpt lat="45.55504" lon="4.59279">
        <ele>468.7</ele>
        <time>2018-09-20T07:56:55Z</time>
      </trkpt>
      <trkpt lat="45.55529" lon="4.5927">
        <ele>468.5</ele>
      </trkpt>
      <trkpt lat="45.55541" lon="4.59265">
        <ele>467.7</ele>
        <time>2018-09-20T07:58:15Z</time>
      </trkpt>
      <trkpt lat="45.55551" lon="4.5926">
        <ele>467.3</ele>
        <time>2018-09-20T07:58:16Z</time>
      </trkpt>
      <trkpt lat="45.55555" lon="4.59258">
        <ele>531.50955298922</ele>
        <time>2018-09-20T07:58:37Z</time>
      </trkpt>
      <trkpt lat="45.55565" lon="4.59243">
        <ele>467.8</ele>
      </trkpt>
      <trkpt lat="45.55574" lon="4.5923">
        <ele>531.13490314659</ele>
        <time>2018-09-20T07:59:34Z</time>
      </trkpt>
      <trkpt lat="45.55581" lon="4.59217">
        <ele>466.9</ele>
      </trkpt>
      <trkpt lat="45.55591" lon="4.59199">
        <ele>467.8</ele>
      </trkpt>
      <trkpt lat="45.55611" lon="4.5917">
        <ele>467</ele>
      </trkpt>
      <trkpt lat="45.55636" lon="4.59162">
        <ele>464.2</ele>
        <time>2018-09-20T08:01:07Z</time>
      </trkpt>
      <trkpt lat="45.55661" lon="4.59161">
        <ele>462</ele>
        <time>2018-09-20T08:01:51Z</time>
      </trkpt>
      <trkpt lat="45.55686" lon="4.59174">
        <ele>462.1</ele>
        <time>2018-09-20T08:02:17Z</time>
      </trkpt>
      <trkpt lat="45.55709" lon="4.59197">
        <ele>461.7</ele>
        <time>2018-09-20T08:02:18Z</time>
      </trkpt>
      <trkpt lat="45.55725" lon="4.59232">
        <ele>461.3</ele>
        <time>2018-09-20T08:03:05Z</time>
      </trkpt>
      <trkpt lat="45.55734" lon="4.59271">
        <ele>463.4</ele>
        <time>2018-09-20T08:03:25Z</time>
      </trkpt>
      <trkpt lat="45.55733" lon="4.59304">
        <ele>464</ele>
        <time>2018-09-20T08:03:26Z</time>
      </trkpt>
      <trkpt lat="45.55725" lon="4.59344">
        <ele>460.7</ele>
      </trkpt>
      <trkpt lat="45.5572" lon="4.59354">
        <ele>528.21912533404</ele>
        <time>2018-09-20T08:04:29Z</time>
      </trkpt>
      <trkpt lat="45.55709" lon="4.59375">
        <ele>458</ele>
        <time>2018-09-20T08:04:30Z</time>
      </trkpt>
      <trkpt lat="45.5569" lon="4.59398">
        <ele>455.5</ele>
      </trkpt>
      <trkpt lat="45.55674" lon="4.59417">
        <ele>454.9</ele>
        <time>2018-09-20T08:05:22Z</time>
      </trkpt>
      <trkpt lat="45.55654" lon="4.59444">
        <ele>453.6</ele>
      </trkpt>
      <trkpt lat="45.55635" lon="4.59473">
        <ele>452.1</ele>
      </trkpt>
      <trkpt lat="45.55627" lon="4.59489">
        <ele>451.3</ele>
      </trkpt>
      <trkpt lat="45.55616" lon="4.59514">
        <ele>450.8</ele>
      </trkpt>
      <trkpt lat="45.55603" lon="4.59549">
        <ele>450.2</ele>
      </trkpt>
      <trkpt lat="45.55596" lon="4.59565">
        <ele>449.9</ele>
      </trkpt>
      <trkpt lat="45.55584" lon="4.59589">
        <ele>449.5</ele>
      </trkpt>
      <trkpt lat="45.55577" lon="4.59603">
        <ele>449.4</ele>
      </trkpt>
      <trkpt lat="45.55559" lon="4.59629">
        <ele>448.1</ele>
        <time>2018-09-20T08:08:57Z</time>
      </trkpt>
      <trkpt lat="45.55551" lon="4.59639">
        <ele>447.6</ele>
      </trkpt>
      <trkpt lat="45.55538" lon="4.59657">
        <ele>447.2</ele>
      </trkpt>
      <trkpt lat="45.55523" lon="4.59677">
        <ele>445.8</ele>
      </trkpt>
      <trkpt lat="45.55507" lon="4.59718">
        <ele>444.1</ele>
      </trkpt>
      <trkpt lat="45.55501" lon="4.59763">
        <ele>442.7</ele>
      </trkpt>
      <trkpt lat="45.55495" lon="4.5979">
        <ele>441</ele>
      </trkpt>
      <trkpt lat="45.55493" lon="4.59797">
        <ele>440.8</ele>
      </trkpt>
      <trkpt lat="45.55486" lon="4.59817">
        <ele>441.2</ele>
      </trkpt>
      <trkpt lat="45.55481" lon="4.59828">
        <ele>441.7</ele>
      </trkpt>
      <trkpt lat="45.55466" lon="4.59856">
        <ele>440.4</ele>
        <time>2018-09-20T08:15:08Z</time>
      </trkpt>
      <trkpt lat="45.55457" lon="4.59888">
        <ele>438.6</ele>
      </trkpt>
      <trkpt lat="45.55449" lon="4.5992">
        <ele>437.2</ele>
        <time>2018-09-20T08:17:09Z</time>
      </trkpt>
      <trkpt lat="45.55443" lon="4.59949">
        <ele>436.9</ele>
        <time>2018-09-20T08:17:40Z</time>
      </trkpt>
      <trkpt lat="45.55441" lon="4.59966">
        <ele>436.8</ele>
        <time>2018-09-20T08:17:42Z</time>
      </trkpt>
      <trkpt lat="45.55434" lon="4.60003">
        <ele>435.4</ele>
        <time>2018-09-20T08:17:47Z</time>
      </trkpt>
      <trkpt lat="45.55429" lon="4.60043">
        <ele>514.21769611542</ele>
        <time>2018-09-20T08:18:30Z</time>
      </trkpt>
      <trkpt lat="45.55427" lon="4.60081">
        <ele>434.5</ele>
      </trkpt>
      <trkpt lat="45.55423" lon="4.60135">
        <ele>434.3</ele>
        <time>2018-09-20T08:19:06Z</time>
      </trkpt>
      <trkpt lat="45.55421" lon="4.60168">
        <ele>433.9</ele>
        <time>2018-09-20T08:21:36Z</time>
      </trkpt>
      <trkpt lat="45.55419" lon="4.60197">
        <ele>433.3</ele>
      </trkpt>
      <trkpt lat="45.55419" lon="4.60209">
        <ele>432.9</ele>
      </trkpt>
      <trkpt lat="45.55425" lon="4.60214">
        <ele>433.9</ele>
        <time>2018-09-20T08:21:51Z</time>
      </trkpt>
      <trkpt lat="45.55436" lon="4.60217">
        <ele>504.56918476541</ele>
        <time>2018-09-20T08:28:59Z</time>
      </trkpt>
      <trkpt lat="45.55449" lon="4.60221">
        <ele>438.7</ele>
      </trkpt>
      <trkpt lat="45.55452" lon="4.60222">
        <ele>439</ele>
        <time>2018-09-20T08:30:26Z</time>
      </trkpt>
      <trkpt lat="45.55454" lon="4.60225">
        <ele>439.2</ele>
      </trkpt>
      <trkpt lat="45.55467" lon="4.60258">
        <ele>438.9</ele>
        <time>2018-09-20T08:30:47Z</time>
      </trkpt>
      <trkpt lat="45.55505" lon="4.60308">
        <ele>437.6</ele>
        <time>2018-09-20T08:31:16Z</time>
      </trkpt>
      <trkpt lat="45.55526" lon="4.60337">
        <ele>434.6</ele>
      </trkpt>
      <trkpt lat="45.5555" lon="4.60368">
        <ele>432.3</ele>
      </trkpt>
      <trkpt lat="45.55567" lon="4.60398">
        <ele>431</ele>
      </trkpt>
      <trkpt lat="45.55599" lon="4.60413">
        <ele>430.4</ele>
        <time>2018-09-20T08:34:27Z</time>
      </trkpt>
      <trkpt lat="45.55625" lon="4.60424">
        <ele>429.3</ele>
      </trkpt>
      <trkpt lat="45.55652" lon="4.60438">
        <ele>428</ele>
        <time>2018-09-20T08:35:06Z</time>
      </trkpt>
      <trkpt lat="45.55688" lon="4.60458">
        <ele>427</ele>
        <time>2018-09-20T08:35:44Z</time>
      </trkpt>
      <trkpt lat="45.55699" lon="4.60464">
        <ele>426.6</ele>
      </trkpt>
      <trkpt lat="45.55712" lon="4.60475">
        <ele>425.8</ele>
      </trkpt>
      <trkpt lat="45.55742" lon="4.60501">
        <ele>424</ele>
      </trkpt>
      <trkpt lat="45.55745" lon="4.60502">
        <ele>423.9</ele>
      </trkpt>
      <trkpt lat="45.55747" lon="4.60502">
        <ele>423.9</ele>
      </trkpt>
      <trkpt lat="45.55759" lon="4.60493">
        <ele>424.5</ele>
      </trkpt>
      <trkpt lat="45.55767" lon="4.60488">
        <ele>425.1</ele>
      </trkpt>
      <trkpt lat="45.55795" lon="4.60474">
        <ele>427.4</ele>
        <time>2018-09-20T08:41:30Z</time>
      </trkpt>
      <trkpt lat="45.55806" lon="4.60473">
        <ele>428</ele>
      </trkpt>
      <trkpt lat="45.55833" lon="4.60479">
        <ele>428.5</ele>
      </trkpt>
      <trkpt lat="45.55848" lon="4.60483">
        <ele>428.7</ele>
        <time>2018-09-20T08:42:24Z</time>
      </trkpt>
      <trkpt lat="45.55861" lon="4.60486">
        <ele>429</ele>
      </trkpt>
      <trkpt lat="45.55879" lon="4.60488">
        <ele>429.5</ele>
      </trkpt>
      <trkpt lat="45.55895" lon="4.6049">
        <ele>429.8</ele>
        <time>2018-09-20T08:45:19Z</time>
      </trkpt>
      <trkpt lat="45.5591" lon="4.60493">
        <ele>429.5</ele>
        <time>2018-09-20T08:45:20Z</time>
      </trkpt>
      <trkpt lat="45.55929" lon="4.60501">
        <ele>429.9</ele>
        <time>2018-09-20T08:45:50Z</time>
      </trkpt>
      <trkpt lat="45.55945" lon="4.60517">
        <ele>429.8</ele>
        <time>2018-09-20T08:46:10Z</time>
      </trkpt>
      <trkpt lat="45.55976" lon="4.60537">
        <ele>431.2</ele>
      </trkpt>
      <trkpt lat="45.55994" lon="4.6054">
        <ele>431.8</ele>
      </trkpt>
      <trkpt lat="45.56006" lon="4.60538">
        <ele>432.6</ele>
      </trkpt>
      <trkpt lat="45.56021" lon="4.60538">
        <ele>433.5</ele>
      </trkpt>
      <trkpt lat="45.56043" lon="4.60542">
        <ele>434</ele>
      </trkpt>
      <trkpt lat="45.5605" lon="4.60541">
        <ele>434.4</ele>
      </trkpt>
      <trkpt lat="45.56068" lon="4.60532">
        <ele>435.5</ele>
      </trkpt>
      <trkpt lat="45.5608" lon="4.6053">
        <ele>435.8</ele>
      </trkpt>
      <trkpt lat="45.56091" lon="4.60535">
        <ele>435.9</ele>
      </trkpt>
      <trkpt lat="45.561" lon="4.60542">
        <ele>436.3</ele>
        <time>2018-09-20T08:49:10Z</time>
      </trkpt>
      <trkpt lat="45.56114" lon="4.60564">
        <ele>436.7</ele>
      </trkpt>
      <trkpt lat="45.56118" lon="4.6058">
        <ele>436.2</ele>
      </trkpt>
      <trkpt lat="45.5612" lon="4.60584">
        <ele>436.3</ele>
        <time>2018-09-20T08:51:18Z</time>
      </trkpt>
      <trkpt lat="45.56127" lon="4.60595">
        <ele>436.8</ele>
      </trkpt>
      <trkpt lat="45.56163" lon="4.60658">
        <ele>438.4</ele>
      </trkpt>
      <trkpt lat="45.56173" lon="4.60666">
        <ele>439</ele>
        <time>2018-09-20T08:53:43Z</time>
      </trkpt>
      <trkpt lat="45.56182" lon="4.60672">
        <ele>439.6</ele>
        <time>2018-09-20T08:53:44Z</time>
      </trkpt>
      <trkpt lat="45.56186" lon="4.60666">
        <ele>440.8</ele>
        <time>2018-09-20T08:53:45Z</time>
      </trkpt>
      <trkpt lat="45.56203" lon="4.6064">
        <ele>444.8</ele>
        <time>2018-09-20T08:56:52Z</time>
      </trkpt>
      <trkpt lat="45.56218" lon="4.60617">
        <ele>447.9</ele>
      </trkpt>
      <trkpt lat="45.56237" lon="4.60591">
        <ele>451.7</ele>
        <time>2018-09-20T08:56:53Z</time>
      </trkpt>
      <trkpt lat="45.56264" lon="4.60558">
        <ele>457</ele>
      </trkpt>
      <trkpt lat="45.56274" lon="4.60547">
        <ele>458.7</ele>
        <time>2018-09-20T09:00:24Z</time>
      </trkpt>
      <trkpt lat="45.5628" lon="4.60535">
        <ele>460.2</ele>
        <time>2018-09-20T09:01:00Z</time>
      </trkpt>
      <trkpt lat="45.56299" lon="4.60495">
        <ele>464.7</ele>
        <time>2018-09-20T09:01:09Z</time>
      </trkpt>
      <trkpt lat="45.56306" lon="4.6048">
        <ele>466.1</ele>
      </trkpt>
      <trkpt lat="45.56315" lon="4.60465">
        <ele>468.3</ele>
        <time>2018-09-20T09:01:19Z</time>
      </trkpt>
      <trkpt lat="45.56322" lon="4.60436">
        <ele>470.9</ele>
        <time>2018-09-20T09:02:05Z</time>
      </trkpt>
      <trkpt lat="45.56326" lon="4.60406">
        <ele>473.1</ele>
        <time>2018-09-20T09:02:30Z</time>
      </trkpt>
      <trkpt lat="45.56328" lon="4.60382">
        <ele>475.4</ele>
        <time>2018-09-20T09:03:30Z</time>
      </trkpt>
      <trkpt lat="45.56335" lon="4.60357">
        <ele>478.5</ele>
        <time>2018-09-20T09:03:31Z</time>
      </trkpt>
      <trkpt lat="45.56341" lon="4.60346">
        <ele>480.1</ele>
        <time>2018-09-20T09:03:32Z</time>
      </trkpt>
      <trkpt lat="45.5635" lon="4.60312">
        <ele>482.6</ele>
        <time>2018-09-20T09:04:06Z</time>
      </trkpt>
      <trkpt lat="45.56359" lon="4.60254">
        <ele>486.4</ele>
        <time>2018-09-20T09:04:07Z</time>
      </trkpt>
      <trkpt lat="45.56364" lon="4.60221">
        <ele>490.4</ele>
        <time>2018-09-20T09:05:04Z</time>
      </trkpt>
      <trkpt lat="45.5637" lon="4.6019">
        <ele>493</ele>
      </trkpt>
      <trkpt lat="45.56381" lon="4.60138">
        <ele>496</ele>
      </trkpt>
      <trkpt lat="45.56386" lon="4.6011">
        <ele>497.2</ele>
        <time>2018-09-20T09:07:05Z</time>
      </trkpt>
      <trkpt lat="45.56388" lon="4.60094">
        <ele>498.3</ele>
      </trkpt>
      <trkpt lat="45.56389" lon="4.60049">
        <ele>500</ele>
        <time>2018-09-20T09:07:18Z</time>
      </trkpt>
      <trkpt lat="45.56385" lon="4.60044">
        <ele>500.2</ele>
        <time>2018-09-20T09:07:19Z</time>
      </trkpt>
      <trkpt lat="45.56382" lon="4.59995">
        <ele>500.4</ele>
      </trkpt>
      <trkpt lat="45.5638" lon="4.59968">
        <ele>500.1</ele>
      </trkpt>
      <trkpt lat="45.56376" lon="4.59931">
        <ele>500.3</ele>
        <time>2018-09-20T09:09:33Z</time>
      </trkpt>
      <trkpt lat="45.56375" lon="4.59925">
        <ele>500.4</ele>
      </trkpt>
      <trkpt lat="45.56364" lon="4.59901">
        <ele>501.5</ele>
        <time>2018-09-20T09:09:45Z</time>
      </trkpt>
      <trkpt lat="45.5635" lon="4.5986">
        <ele>501.4</ele>
      </trkpt>
      <trkpt lat="45.56348" lon="4.59853">
        <ele>501.2</ele>
      </trkpt>
      <trkpt lat="45.56339" lon="4.59839">
        <ele>501.4</ele>
      </trkpt>
      <trkpt lat="45.56322" lon="4.5981">
        <ele>500.6</ele>
        <time>2018-09-20T09:11:26Z</time>
      </trkpt>
      <trkpt lat="45.5631" lon="4.59792">
        <ele>500.2</ele>
      </trkpt>
      <trkpt lat="45.56299" lon="4.59775">
        <ele>499.9</ele>
        <time>2018-09-20T09:11:27Z</time>
      </trkpt>
      <trkpt lat="45.56295" lon="4.5977">
        <ele>499.9</ele>
        <time>2018-09-20T09:12:26Z</time>
      </trkpt>
      <trkpt lat="45.56286" lon="4.59762">
        <ele>500.4</ele>
      </trkpt>
      <trkpt lat="45.56273" lon="4.59749">
        <ele>500.8</ele>
      </trkpt>
      <trkpt lat="45.56252" lon="4.59728">
        <ele>502.2</ele>
        <time>2018-09-20T09:13:05Z</time>
      </trkpt>
      <trkpt lat="45.56233" lon="4.59707">
        <ele>502.8</ele>
        <time>2018-09-20T09:13:09Z</time>
      </trkpt>
      <trkpt lat="45.56218" lon="4.59682">
        <ele>502.4</ele>
      </trkpt>
      <trkpt lat="45.56209" lon="4.59666">
        <ele>502.8</ele>
        <time>2018-09-20T09:13:57Z</time>
      </trkpt>
      <trkpt lat="45.56202" lon="4.59648">
        <ele>503.1</ele>
        <time>2018-09-20T09:14:04Z</time>
      </trkpt>
      <trkpt lat="45.56196" lon="4.59627">
        <ele>502.9</ele>
      </trkpt>
      <trkpt lat="45.56188" lon="4.59605">
        <ele>502.7</ele>
      </trkpt>
      <trkpt lat="45.5617" lon="4.59553">
        <ele>502.4</ele>
        <time>2018-09-20T09:15:06Z</time>
      </trkpt>
      <trkpt lat="45.5616" lon="4.59527">
        <ele>501.9</ele>
        <time>2018-09-20T09:15:32Z</time>
      </trkpt>
      <trkpt lat="45.56151" lon="4.59495">
        <ele>500.2</ele>
        <time>2018-09-20T09:15:52Z</time>
      </trkpt>
      <trkpt lat="45.56136" lon="4.59468">
        <ele>499.8</ele>
        <time>2018-09-20T09:16:10Z</time>
      </trkpt>
      <trkpt lat="45.56124" lon="4.59445">
        <ele>499.3</ele>
        <time>2018-09-20T09:16:32Z</time>
      </trkpt>
      <trkpt lat="45.56114" lon="4.59427">
        <ele>498.8</ele>
      </trkpt>
      <trkpt lat="45.56103" lon="4.59405">
        <ele>498.3</ele>
        <time>2018-09-20T09:17:59Z</time>
      </trkpt>
      <trkpt lat="45.56092" lon="4.59385">
        <ele>497.8</ele>
      </trkpt>
      <trkpt lat="45.56084" lon="4.59366">
        <ele>497.3</ele>
        <time>2018-09-20T09:18:17Z</time>
      </trkpt>
      <trkpt lat="45.56077" lon="4.59345">
        <ele>496.9</ele>
        <time>2018-09-20T09:18:42Z</time>
      </trkpt>
      <trkpt lat="45.56072" lon="4.59323">
        <ele>496.8</ele>
        <time>2018-09-20T09:18:52Z</time>
      </trkpt>
      <trkpt lat="45.56067" lon="4.59281">
        <ele>497.2</ele>
      </trkpt>
      <trkpt lat="45.56067" lon="4.59258">
        <ele>497.5</ele>
      </trkpt>
      <trkpt lat="45.56066" lon="4.59235">
        <ele>497.6</ele>
        <time>2018-09-20T09:19:43Z</time>
      </trkpt>
      <trkpt lat="45.56069" lon="4.59208">
        <ele>498</ele>
      </trkpt>
      <trkpt lat="45.5607" lon="4.59171">
        <ele>499.4</ele>
        <time>2018-09-20T09:19:56Z</time>
      </trkpt>
      <trkpt lat="45.5607" lon="4.59152">
        <ele>499.8</ele>
      </trkpt>
      <trkpt lat="45.56065" lon="4.59112">
        <ele>501.3</ele>
      </trkpt>
      <trkpt lat="45.56071" lon="4.59091">
        <ele>503</ele>
        <time>2018-09-20T09:22:02Z</time>
      </trkpt>
      <trkpt lat="45.56074" lon="4.59064">
        <ele>505.1</ele>
      </trkpt>
      <trkpt lat="45.56074" lon="4.59059">
        <ele>505.4</ele>
      </trkpt>
      <trkpt lat="45.56069" lon="4.59031">
        <ele>506.8</ele>
      </trkpt>
      <trkpt lat="45.56068" lon="4.59016">
        <ele>508.5</ele>
      </trkpt>
      <trkpt lat="45.56073" lon="4.58995">
        <ele>511.4</ele>
      </trkpt>
      <trkpt lat="45.56081" lon="4.5897">
        <ele>515.2</ele>
      </trkpt>
      <trkpt lat="45.56093" lon="4.58933">
        <ele>520.4</ele>
      </trkpt>
      <trkpt lat="45.56106" lon="4.58894">
        <ele>526.3</ele>
        <time>2018-09-20T09:26:58Z</time>
      </trkpt>
      <trkpt lat="45.56112" lon="4.58876">
        <ele>528.8</ele>
        <time>2018-09-20T09:27:17Z</time>
      </trkpt>
      <trkpt lat="45.56121" lon="4.58847">
        <ele>533.5</ele>
      </trkpt>
      <trkpt lat="45.56131" lon="4.58818">
        <ele>538.2</ele>
      </trkpt>
      <trkpt lat="45.56139" lon="4.58796">
        <ele>541.4</ele>
        <time>2018-09-20T09:29:22Z</time>
      </trkpt>
      <trkpt lat="45.56144" lon="4.58781">
        <ele>543.4</ele>
      </trkpt>
      <trkpt lat="45.56147" lon="4.58765">
        <ele>545.6</ele>
        <time>2018-09-20T09:29:45Z</time>
      </trkpt>
      <trkpt lat="45.56153" lon="4.58747">
        <ele>548</ele>
      </trkpt>
      <trkpt lat="45.56162" lon="4.58719">
        <ele>551.7</ele>
      </trkpt>
      <trkpt lat="45.56174" lon="4.58684">
        <ele>556.5</ele>
      </trkpt>
      <trkpt lat="45.56184" lon="4.58653">
        <ele>561.9</ele>
      </trkpt>
      <trkpt lat="45.56207" lon="4.58585">
        <ele>570.8</ele>
        <time>2018-09-20T09:35:36Z</time>
      </trkpt>
      <trkpt lat="45.56207" lon="4.58574">
        <ele>572.6</ele>
        <time>2018-09-20T09:35:37Z</time>
      </trkpt>
      <trkpt lat="45.56217" lon="4.58555">
        <ele>575.2</ele>
      </trkpt>
      <trkpt lat="45.56223" lon="4.58545">
        <ele>576.5</ele>
      </trkpt>
      <trkpt lat="45.56247" lon="4.5851">
        <ele>580</ele>
      </trkpt>
      <trkpt lat="45.56267" lon="4.58484">
        <ele>583.2</ele>
        <time>2018-09-20T09:36:24Z</time>
      </trkpt>
      <trkpt lat="45.56278" lon="4.58468">
        <ele>584.5</ele>
        <time>2018-09-20T09:37:42Z</time>
      </trkpt>
      <trkpt lat="45.56282" lon="4.58456">
        <ele>586</ele>
      </trkpt>
      <trkpt lat="45.56301" lon="4.58408">
        <ele>590.2</ele>
        <time>2018-09-20T09:38:01Z</time>
      </trkpt>
      <trkpt lat="45.56301" lon="4.58401">
        <ele>590.5</ele>
        <time>2018-09-20T09:38:02Z</time>
      </trkpt>
      <trkpt lat="45.56285" lon="4.58373">
        <ele>591.3</ele>
        <time>2018-09-20T09:39:48Z</time>
      </trkpt>
      <trkpt lat="45.56269" lon="4.58342">
        <ele>592.2</ele>
        <time>2018-09-20T09:40:07Z</time>
      </trkpt>
      <trkpt lat="45.56264" lon="4.58328">
        <ele>592.3</ele>
        <time>2018-09-20T09:40:20Z</time>
      </trkpt>
      <trkpt lat="45.56261" lon="4.58314">
        <ele>592.2</ele>
      </trkpt>
      <trkpt lat="45.56257" lon="4.58299">
        <ele>592.5</ele>
        <time>2018-09-20T09:40:39Z</time>
      </trkpt>
      <trkpt lat="45.56252" lon="4.58284">
        <ele>592.7</ele>
        <time>2018-09-20T09:41:09Z</time>
      </trkpt>
      <trkpt lat="45.5625" lon="4.58267">
        <ele>592.6</ele>
      </trkpt>
      <trkpt lat="45.56247" lon="4.58252">
        <ele>592.5</ele>
        <time>2018-09-20T09:41:10Z</time>
      </trkpt>
      <trkpt lat="45.56241" lon="4.58229">
        <ele>594.1</ele>
        <time>2018-09-20T09:41:22Z</time>
      </trkpt>
      <trkpt lat="45.56237" lon="4.58219">
        <ele>594.7</ele>
      </trkpt>
      <trkpt lat="45.5623" lon="4.58204">
        <ele>595.3</ele>
      </trkpt>
      <trkpt lat="45.56222" lon="4.58194">
        <ele>596</ele>
      </trkpt>
      <trkpt lat="45.56214" lon="4.58179">
        <ele>595.8</ele>
        <time>2018-09-20T09:41:54Z</time>
      </trkpt>
      <trkpt lat="45.56201" lon="4.58153">
        <ele>595.2</ele>
        <time>2018-09-20T09:42:27Z</time>
      </trkpt>
      <trkpt lat="45.56191" lon="4.58132">
        <ele>595.2</ele>
        <time>2018-09-20T09:42:41Z</time>
      </trkpt>
      <trkpt lat="45.56183" lon="4.58118">
        <ele>634.55320213814</ele>
        <time>2018-09-20T09:42:51Z</time>
      </trkpt>
      <trkpt lat="45.56155" lon="4.58065">
        <ele>595.4</ele>
        <time>2018-09-20T09:44:40Z</time>
      </trkpt>
      <trkpt lat="45.56147" lon="4.58051">
        <ele>595.6</ele>
      </trkpt>
      <trkpt lat="45.56139" lon="4.58028">
        <ele>596.1</ele>
        <time>2018-09-20T09:45:20Z</time>
      </trkpt>
      <trkpt lat="45.56134" lon="4.58014">
        <ele>596.3</ele>
      </trkpt>
      <trkpt lat="45.56123" lon="4.57981">
        <ele>596.9</ele>
        <time>2018-09-20T09:46:03Z</time>
      </trkpt>
      <trkpt lat="45.56117" lon="4.57965">
        <ele>597.1</ele>
        <time>2018-09-20T09:46:17Z</time>
      </trkpt>
      <trkpt lat="45.56108" lon="4.57933">
        <ele>596.7</ele>
      </trkpt>
      <trkpt lat="45.56101" lon="4.57902">
        <ele>595.7</ele>
        <time>2018-09-20T09:46:35Z</time>
      </trkpt>
      <trkpt lat="45.56097" lon="4.57874">
        <ele>594.4</ele>
        <time>2018-09-20T09:47:09Z</time>
      </trkpt>
      <trkpt lat="45.56095" lon="4.57853">
        <ele>594.3</ele>
      </trkpt>
      <trkpt lat="45.56097" lon="4.57832">
        <ele>593.8</ele>
      </trkpt>
      <trkpt lat="45.56099" lon="4.57807">
        <ele>595.5</ele>
      </trkpt>
      <trkpt lat="45.56099" lon="4.57784">
        <ele>596</ele>
        <time>2018-09-20T09:48:13Z</time>
      </trkpt>
      <trkpt lat="45.56098" lon="4.57771">
        <ele>595.9</ele>
        <time>2018-09-20T09:48:24Z</time>
      </trkpt>
      <trkpt lat="45.56094" lon="4.57751">
        <ele>595.9</ele>
      </trkpt>
      <trkpt lat="45.56089" lon="4.57718">
        <ele>595.8</ele>
        <time>2018-09-20T09:49:10Z</time>
      </trkpt>
      <trkpt lat="45.56085" lon="4.5768">
        <ele>594.9</ele>
        <time>2018-09-20T09:49:33Z</time>
      </trkpt>
      <trkpt lat="45.56078" lon="4.57628">
        <ele>592.9</ele>
      </trkpt>
      <trkpt lat="45.56069" lon="4.57558">
        <ele>588.6</ele>
      </trkpt>
      <trkpt lat="45.56064" lon="4.57515">
        <ele>586.3</ele>
        <time>2018-09-20T09:51:51Z</time>
      </trkpt>
      <trkpt lat="45.56058" lon="4.5748">
        <ele>584.8</ele>
        <time>2018-09-20T09:52:17Z</time>
      </trkpt>
      <trkpt lat="45.56056" lon="4.57459">
        <ele>584.1</ele>
      </trkpt>
      <trkpt lat="45.56058" lon="4.57434">
        <ele>583.6</ele>
        <time>2018-09-20T09:52:34Z</time>
      </trkpt>
      <trkpt lat="45.56062" lon="4.57387">
        <ele>583.6</ele>
      </trkpt>
      <trkpt lat="45.56065" lon="4.5735">
        <ele>583</ele>
      </trkpt>
      <trkpt lat="45.56065" lon="4.57349">
        <ele>583.1</ele>
      </trkpt>
      <trkpt lat="45.56065" lon="4.57349">
        <ele>583.1</ele>
      </trkpt>
      <trkpt lat="45.56045" lon="4.5734">
        <ele>585.3</ele>
      </trkpt>
      <trkpt lat="45.56015" lon="4.57326">
        <ele>588.1</ele>
        <time>2018-09-20T09:55:17Z</time>
      </trkpt>
      <trkpt lat="45.56003" lon="4.57323">
        <ele>589</ele>
      </trkpt>
      <trkpt lat="45.55981" lon="4.57319">
        <ele>589</ele>
        <time>2018-09-20T09:56:01Z</time>
      </trkpt>
      <trkpt lat="45.55964" lon="4.57314">
        <ele>588.4</ele>
        <time>2018-09-20T09:56:21Z</time>
      </trkpt>
      <trkpt lat="45.55947" lon="4.57303">
        <ele>586.8</ele>
        <time>2018-09-20T09:56:44Z</time>
      </trkpt>
      <trkpt lat="45.55944" lon="4.573">
        <ele>586.4</ele>
      </trkpt>
      <trkpt lat="45.55927" lon="4.57293">
        <ele>584.8</ele>
        <time>2018-09-20T09:57:15Z</time>
      </trkpt>
      <trkpt lat="45.55917" lon="4.5729">
        <ele>643.0829148448</ele>
        <time>2018-09-20T09:57:51Z</time>
      </trkpt>
      <trkpt lat="45.55905" lon="4.57284">
        <ele>582.7</ele>
        <time>2018-09-20T09:58:00Z</time>
      </trkpt>
      <trkpt lat="45.55879" lon="4.57274">
        <ele>580.5</ele>
        <time>2018-09-20T09:58:16Z</time>
      </trkpt>
      <trkpt lat="45.55855" lon="4.57261">
        <ele>578.7</ele>
      </trkpt>
      <trkpt lat="45.55831" lon="4.57249">
        <ele>576.9</ele>
      </trkpt>
      <trkpt lat="45.55809" lon="4.57237">
        <ele>575.1</ele>
      </trkpt>
      <trkpt lat="45.55788" lon="4.57228">
        <ele>573.4</ele>
        <time>2018-09-20T10:00:19Z</time>
      </trkpt>
      <trkpt lat="45.55778" lon="4.57223">
        <ele>572.2</ele>
      </trkpt>
      <trkpt lat="45.5577" lon="4.5722">
        <ele>571.3</ele>
      </trkpt>
      <trkpt lat="45.55746" lon="4.57221">
        <ele>570.6</ele>
        <time>2018-09-20T10:01:10Z</time>
      </trkpt>
      <trkpt lat="45.55727" lon="4.57222">
        <ele>570.2</ele>
      </trkpt>
      <trkpt lat="45.55706" lon="4.57219">
        <ele>568.5</ele>
        <time>2018-09-20T10:01:52Z</time>
      </trkpt>
      <trkpt lat="45.55692" lon="4.57216">
        <ele>567.4</ele>
        <time>2018-09-20T10:02:09Z</time>
      </trkpt>
      <trkpt lat="45.55678" lon="4.57212">
        <ele>566.7</ele>
      </trkpt>
      <trkpt lat="45.55663" lon="4.57207">
        <ele>565.8</ele>
        <time>2018-09-20T10:02:47Z</time>
      </trkpt>
      <trkpt lat="45.55624" lon="4.57194">
        <ele>565</ele>
        <time>2018-09-20T10:03:43Z</time>
      </trkpt>
      <trkpt lat="45.55604" lon="4.57188">
        <ele>564.8</ele>
      </trkpt>
      <trkpt lat="45.55583" lon="4.57182">
        <ele>564.3</ele>
        <time>2018-09-20T10:04:22Z</time>
      </trkpt>
      <trkpt lat="45.55568" lon="4.5718">
        <ele>565</ele>
      </trkpt>
      <trkpt lat="45.55554" lon="4.57179">
        <ele>565.7</ele>
        <time>2018-09-20T10:04:51Z</time>
      </trkpt>
      <trkpt lat="45.55538" lon="4.57179">
        <ele>566.5</ele>
      </trkpt>
      <trkpt lat="45.55517" lon="4.57179">
        <ele>567.7</ele>
      </trkpt>
      <trkpt lat="45.55508" lon="4.5718">
        <ele>568.5</ele>
      </trkpt>
      <trkpt lat="45.55493" lon="4.57183">
        <ele>569.2</ele>
      </trkpt>
      <trkpt lat="45.55478" lon="4.57189">
        <ele>570</ele>
      </trkpt>
      <trkpt lat="45.55468" lon="4.57194">
        <ele>570</ele>
      </trkpt>
      <trkpt lat="45.55446" lon="4.57217">
        <ele>569.5</ele>
      </trkpt>
      <trkpt lat="45.55432" lon="4.57242">
        <ele>569.2</ele>
      </trkpt>
      <trkpt lat="45.55421" lon="4.57268">
        <ele>567.1</ele>
      </trkpt>
      <trkpt lat="45.55411" lon="4.57292">
        <ele>564.9</ele>
      </trkpt>
      <trkpt lat="45.55398" lon="4.57328">
        <ele>562.2</ele>
      </trkpt>
      <trkpt lat="45.55394" lon="4.57341">
        <ele>560.7</ele>
      </trkpt>
      <trkpt lat="45.55391" lon="4.57355">
        <ele>558.9</ele>
      </trkpt>
      <trkpt lat="45.55387" lon="4.57364">
        <ele>557.6</ele>
      </trkpt>
      <trkpt lat="45.55383" lon="4.57373">
        <ele>556.6</ele>
      </trkpt>
      <trkpt lat="45.55373" lon="4.57385">
        <ele>554.5</ele>
      </trkpt>
      <trkpt lat="45.55354" lon="4.57407">
        <ele>549.8</ele>
        <time>2018-09-20T10:16:37Z</time>
      </trkpt>
      <trkpt lat="45.55344" lon="4.57415">
        <ele>547.4</ele>
      </trkpt>
      <trkpt lat="45.55335" lon="4.57415">
        <ele>545.4</ele>
      </trkpt>
      <trkpt lat="45.55328" lon="4.57417">
        <ele>544.1</ele>
      </trkpt>
      <trkpt lat="45.55323" lon="4.57422">
        <ele>542.9</ele>
      </trkpt>
      <trkpt lat="45.55306" lon="4.57425">
        <ele>539.9</ele>
        <time>2018-09-20T10:18:01Z</time>
      </trkpt>
      <trkpt lat="45.55302" lon="4.57429">
        <ele>539</ele>
      </trkpt>
      <trkpt lat="45.55298" lon="4.57433">
        <ele>538.3</ele>
      </trkpt>
      <trkpt lat="45.55294" lon="4.57434">
        <ele>537.5</ele>
      </trkpt>
      <trkpt lat="45.55289" lon="4.5743">
        <ele>536.8</ele>
      </trkpt>
      <trkpt lat="45.55285" lon="4.57429">
        <ele>536.2</ele>
      </trkpt>
      <trkpt lat="45.5528" lon="4.57435">
        <ele>535.3</ele>
      </trkpt>
      <trkpt lat="45.55276" lon="4.57441">
        <ele>534.7</ele>
        <time>2018-09-20T10:19:14Z</time>
      </trkpt>
      <trkpt lat="45.55274" lon="4.57449">
        <ele>533.9</ele>
      </trkpt>
      <trkpt lat="45.55274" lon="4.57462">
        <ele>532.4</ele>
      </trkpt>
      <trkpt lat="45.55275" lon="4.57473">
        <ele>531.3</ele>
        <time>2018-09-20T10:19:43Z</time>
      </trkpt>
      <trkpt lat="45.5527" lon="4.57483">
        <ele>529.1</ele>
        <time>2018-09-20T10:19:48Z</time>
      </trkpt>
      <trkpt lat="45.55266" lon="4.57494">
        <ele>527</ele>
      </trkpt>
      <trkpt lat="45.55258" lon="4.57507">
        <ele>524.8</ele>
        <time>2018-09-20T10:20:02Z</time>
      </trkpt>
      <trkpt lat="45.55252" lon="4.57518">
        <ele>523.6</ele>
        <time>2018-09-20T10:20:16Z</time>
      </trkpt>
      <trkpt lat="45.55244" lon="4.5753">
        <ele>522.5</ele>
        <time>2018-09-20T10:20:27Z</time>
      </trkpt>
      <trkpt lat="45.55232" lon="4.57544">
        <ele>520.7</ele>
      </trkpt>
      <trkpt lat="45.5522" lon="4.57557">
        <ele>518.8</ele>
      </trkpt>
      <trkpt lat="45.55209" lon="4.57569">
        <ele>517.5</ele>
        <time>2018-09-20T10:20:54Z</time>
      </trkpt>
      <trkpt lat="45.55198" lon="4.5758">
        <ele>516.4</ele>
        <time>2018-09-20T10:21:05Z</time>
      </trkpt>
      <trkpt lat="45.55187" lon="4.57591">
        <ele>515.2</ele>
        <time>2018-09-20T10:21:06Z</time>
      </trkpt>
      <trkpt lat="45.55177" lon="4.57597">
        <ele>514.3</ele>
        <time>2018-09-20T10:21:07Z</time>
      </trkpt>
      <trkpt lat="45.5517" lon="4.57598">
        <ele>513.7</ele>
      </trkpt>
      <trkpt lat="45.55162" lon="4.57601">
        <ele>513.2</ele>
      </trkpt>
      <trkpt lat="45.55157" lon="4.57605">
        <ele>512.9</ele>
      </trkpt>
      <trkpt lat="45.55153" lon="4.5761">
        <ele>512.5</ele>
        <time>2018-09-20T10:22:10Z</time>
      </trkpt>
      <trkpt lat="45.55146" lon="4.5762">
        <ele>511.9</ele>
        <time>2018-09-20T10:22:27Z</time>
      </trkpt>
      <trkpt lat="45.55135" lon="4.57631">
        <ele>511.2</ele>
        <time>2018-09-20T10:22:43Z</time>
      </trkpt>
      <trkpt lat="45.55126" lon="4.57639">
        <ele>510.5</ele>
        <time>2018-09-20T10:22:47Z</time>
      </trkpt>
      <trkpt lat="45.55115" lon="4.57648">
        <ele>509.5</ele>
        <time>2018-09-20T10:23:03Z</time>
      </trkpt>
      <trkpt lat="45.55104" lon="4.57659">
        <ele>508.2</ele>
        <time>2018-09-20T10:23:15Z</time>
      </trkpt>
      <trkpt lat="45.55092" lon="4.5767">
        <ele>507.1</ele>
        <time>2018-09-20T10:23:17Z</time>
      </trkpt>
      <trkpt lat="45.55078" lon="4.57682">
        <ele>505.6</ele>
        <time>2018-09-20T10:23:18Z</time>
      </trkpt>
      <trkpt lat="45.55071" lon="4.57686">
        <ele>504.9</ele>
        <time>2018-09-20T10:23:19Z</time>
      </trkpt>
      <trkpt lat="45.55061" lon="4.57688">
        <ele>504.1</ele>
      </trkpt>
      <trkpt lat="45.55055" lon="4.5769">
        <ele>503.5</ele>
        <time>2018-09-20T10:24:07Z</time>
      </trkpt>
      <trkpt lat="45.5503" lon="4.57696">
        <ele>501.9</ele>
      </trkpt>
      <trkpt lat="45.55004" lon="4.57701">
        <ele>500.3</ele>
      </trkpt>
      <trkpt lat="45.54997" lon="4.57705">
        <ele>499</ele>
        <time>2018-09-20T10:25:35Z</time>
      </trkpt>
      <trkpt lat="45.54991" lon="4.57712">
        <ele>497.5</ele>
        <time>2018-09-20T10:25:36Z</time>
      </trkpt>
      <trkpt lat="45.54987" lon="4.57727">
        <ele>495.9</ele>
        <time>2018-09-20T10:25:37Z</time>
      </trkpt>
      <trkpt lat="45.54983" lon="4.57744">
        <ele>495</ele>
        <time>2018-09-20T10:25:38Z</time>
      </trkpt>
      <trkpt lat="45.54981" lon="4.57752">
        <ele>494.6</ele>
        <time>2018-09-20T10:25:39Z</time>
      </trkpt>
      <trkpt lat="45.54975" lon="4.57768">
        <ele>494.1</ele>
      </trkpt>
      <trkpt lat="45.54968" lon="4.57785">
        <ele>493.3</ele>
      </trkpt>
      <trkpt lat="45.54959" lon="4.57807">
        <ele>492.1</ele>
      </trkpt>
      <trkpt lat="45.54951" lon="4.57826">
        <ele>492</ele>
        <time>2018-09-20T10:27:07Z</time>
      </trkpt>
      <trkpt lat="45.5494" lon="4.57849">
        <ele>492.2</ele>
      </trkpt>
      <trkpt lat="45.54933" lon="4.57865">
        <ele>492.1</ele>
      </trkpt>
      <trkpt lat="45.54927" lon="4.57877">
        <ele>491.5</ele>
        <time>2018-09-20T10:28:17Z</time>
      </trkpt>
      <trkpt lat="45.5492" lon="4.57891">
        <ele>491.1</ele>
      </trkpt>
      <trkpt lat="45.54914" lon="4.57904">
        <ele>576.03550576192</ele>
        <time>2018-09-20T10:28:42Z</time>
      </trkpt>
      <trkpt lat="45.54908" lon="4.57915">
        <ele>490.7</ele>
      </trkpt>
      <trkpt lat="45.54895" lon="4.57929">
        <ele>490.1</ele>
      </trkpt>
      <trkpt lat="45.54883" lon="4.57942">
        <ele>489.6</ele>
        <time>2018-09-20T10:29:20Z</time>
      </trkpt>
      <trkpt lat="45.54872" lon="4.57953">
        <ele>488.2</ele>
      </trkpt>
      <trkpt lat="45.54863" lon="4.57964">
        <ele>487.3</ele>
      </trkpt>
      <trkpt lat="45.54857" lon="4.57966">
        <ele>487.1</ele>
      </trkpt>
      <trkpt lat="45.54845" lon="4.57969">
        <ele>486.5</ele>
      </trkpt>
      <trkpt lat="45.54833" lon="4.57972">
        <ele>486</ele>
        <time>2018-09-20T10:30:40Z</time>
      </trkpt>
      <trkpt lat="45.54834" lon="4.57993">
        <ele>484.5</ele>
      </trkpt>
      <trkpt lat="45.54835" lon="4.5801">
        <ele>483</ele>
        <time>2018-09-20T10:30:41Z</time>
      </trkpt>
      <trkpt lat="45.54839" lon="4.58034">
        <ele>480.3</ele>
      </trkpt>
      <trkpt lat="45.54841" lon="4.58054">
        <ele>478.2</ele>
      </trkpt>
      <trkpt lat="45.54843" lon="4.5808">
        <ele>475.3</ele>
      </trkpt>
      <trkpt lat="45.54843" lon="4.58102">
        <ele>472.3</ele>
      </trkpt>
      <trkpt lat="45.54843" lon="4.5812">
        <ele>469.8</ele>
      </trkpt>
      <trkpt lat="45.54846" lon="4.58131">
        <ele>468.1</ele>
      </trkpt>
      <trkpt lat="45.54859" lon="4.58135">
        <ele>467.6</ele>
        <time>2018-09-20T10:32:45Z</time>
      </trkpt>
      <trkpt lat="45.54872" lon="4.58139">
        <ele>467</ele>
      </trkpt>
      <trkpt lat="45.54885" lon="4.58143">
        <ele>466.3</ele>
        <time>2018-09-20T10:33:46Z</time>
      </trkpt>
      <trkpt lat="45.54906" lon="4.58143">
        <ele>465.8</ele>
        <time>2018-09-20T10:33:47Z</time>
      </trkpt>
      <trkpt lat="45.54917" lon="4.58142">
        <ele>465.5</ele>
        <time>2018-09-20T10:33:48Z</time>
      </trkpt>
      <trkpt lat="45.54935" lon="4.58139">
        <ele>465.3</ele>
        <time>2018-09-20T10:33:49Z</time>
      </trkpt>
      <trkpt lat="45.54945" lon="4.58136">
        <ele>465.3</ele>
      </trkpt>
      <trkpt lat="45.54964" lon="4.58129">
        <ele>464.5</ele>
      </trkpt>
      <trkpt lat="45.54982" lon="4.5812">
        <ele>464.6</ele>
      </trkpt>
      <trkpt lat="45.54994" lon="4.58113">
        <ele>465</ele>
      </trkpt>
      <trkpt lat="45.55012" lon="4.58104">
        <ele>465.1</ele>
      </trkpt>
      <trkpt lat="45.55029" lon="4.58095">
        <ele>465.5</ele>
      </trkpt>
      <trkpt lat="45.55045" lon="4.58084">
        <ele>465.9</ele>
      </trkpt>
      <trkpt lat="45.55056" lon="4.58077">
        <ele>466</ele>
        <time>2018-09-20T10:36:34Z</time>
      </trkpt>
      <trkpt lat="45.55064" lon="4.58073">
        <ele>466.4</ele>
        <time>2018-09-20T10:36:35Z</time>
      </trkpt>
      <trkpt lat="45.55084" lon="4.58061">
        <ele>466.4</ele>
        <time>2018-09-20T10:36:36Z</time>
      </trkpt>
      <trkpt lat="45.55111" lon="4.58047">
        <ele>468.3</ele>
        <time>2018-09-20T10:37:23Z</time>
      </trkpt>
      <trkpt lat="45.55126" lon="4.58041">
        <ele>468.3</ele>
        <time>2018-09-20T10:37:24Z</time>
      </trkpt>
      <trkpt lat="45.55135" lon="4.58038">
        <ele>468.4</ele>
        <time>2018-09-20T10:37:25Z</time>
      </trkpt>
      <trkpt lat="45.55142" lon="4.58035">
        <ele>468.6</ele>
        <time>2018-09-20T10:38:17Z</time>
      </trkpt>
      <trkpt lat="45.55154" lon="4.58034">
        <ele>468.5</ele>
      </trkpt>
      <trkpt lat="45.55166" lon="4.58034">
        <ele>468.2</ele>
      </trkpt>
      <trkpt lat="45.55178" lon="4.58035">
        <ele>467.9</ele>
      </trkpt>
      <trkpt lat="45.55187" lon="4.58042">
        <ele>466.5</ele>
      </trkpt>
      <trkpt lat="45.55194" lon="4.58049">
        <ele>465.2</ele>
        <time>2018-09-20T10:39:33Z</time>
      </trkpt>
      <trkpt lat="45.55202" lon="4.58061">
        <ele>464.5</ele>
      </trkpt>
      <trkpt lat="45.55207" lon="4.58072">
        <ele>464.1</ele>
      </trkpt>
      <trkpt lat="45.55215" lon="4.58095">
        <ele>464.8</ele>
        <time>2018-09-20T10:40:55Z</time>
      </trkpt>
      <trkpt lat="45.55216" lon="4.58113">
        <ele>465</ele>
      </trkpt>
      <trkpt lat="45.55217" lon="4.58128">
        <ele>465.2</ele>
      </trkpt>
      <trkpt lat="45.55216" lon="4.58142">
        <ele>465.2</ele>
      </trkpt>
      <trkpt lat="45.55215" lon="4.58153">
        <ele>466</ele>
        <time>2018-09-20T10:41:29Z</time>
      </trkpt>
      <trkpt lat="45.55214" lon="4.58161">
        <ele>466.3</ele>
        <time>2018-09-20T10:41:31Z</time>
      </trkpt>
      <trkpt lat="45.5521" lon="4.58171">
        <ele>466.5</ele>
      </trkpt>
      <trkpt lat="45.55206" lon="4.58182">
        <ele>466.8</ele>
        <time>2018-09-20T10:41:51Z</time>
      </trkpt>
      <trkpt lat="45.55199" lon="4.58194">
        <ele>466.3</ele>
        <time>2018-09-20T10:41:59Z</time>
      </trkpt>
      <trkpt lat="45.55195" lon="4.582">
        <ele>466.3</ele>
      </trkpt>
      <trkpt lat="45.5519" lon="4.58205">
        <ele>466.6</ele>
        <time>2018-09-20T10:42:14Z</time>
      </trkpt>
      <trkpt lat="45.5518" lon="4.58213">
        <ele>466.7</ele>
        <time>2018-09-20T10:42:22Z</time>
      </trkpt>
      <trkpt lat="45.55174" lon="4.58217">
        <ele>466.4</ele>
        <time>2018-09-20T10:42:25Z</time>
      </trkpt>
      <trkpt lat="45.55165" lon="4.5822">
        <ele>465.6</ele>
        <time>2018-09-20T10:42:26Z</time>
      </trkpt>
      <trkpt lat="45.55154" lon="4.58223">
        <ele>465.3</ele>
        <time>2018-09-20T10:42:27Z</time>
      </trkpt>
      <trkpt lat="45.55141" lon="4.58228">
        <ele>465.2</ele>
        <time>2018-09-20T10:42:28Z</time>
      </trkpt>
      <trkpt lat="45.55129" lon="4.58234">
        <ele>464.6</ele>
        <time>2018-09-20T10:42:29Z</time>
      </trkpt>
      <trkpt lat="45.55123" lon="4.58236">
        <ele>464.2</ele>
      </trkpt>
      <trkpt lat="45.55115" lon="4.58245">
        <ele>464.7</ele>
        <time>2018-09-20T10:43:22Z</time>
      </trkpt>
      <trkpt lat="45.55103" lon="4.58264">
        <ele>465.3</ele>
      </trkpt>
      <trkpt lat="45.55093" lon="4.58285">
        <ele>465.4</ele>
      </trkpt>
      <trkpt lat="45.55084" lon="4.58304">
        <ele>464.9</ele>
        <time>2018-09-20T10:44:11Z</time>
      </trkpt>
      <trkpt lat="45.5508" lon="4.58317">
        <ele>464</ele>
      </trkpt>
      <trkpt lat="45.55079" lon="4.58327">
        <ele>463.6</ele>
      </trkpt>
      <trkpt lat="45.55078" lon="4.58336">
        <ele>463.6</ele>
      </trkpt>
      <trkpt lat="45.55078" lon="4.58349">
        <ele>463.4</ele>
      </trkpt>
      <trkpt lat="45.5508" lon="4.58374">
        <ele>464</ele>
      </trkpt>
      <trkpt lat="45.55086" lon="4.58395">
        <ele>464.9</ele>
      </trkpt>
      <trkpt lat="45.55092" lon="4.58409">
        <ele>465</ele>
      </trkpt>
      <trkpt lat="45.55101" lon="4.58429">
        <ele>464.9</ele>
      </trkpt>
      <trkpt lat="45.55113" lon="4.58444">
        <ele>465.4</ele>
      </trkpt>
      <trkpt lat="45.55123" lon="4.58454">
        <ele>465</ele>
        <time>2018-09-20T10:45:58Z</time>
      </trkpt>
      <trkpt lat="45.55133" lon="4.58462">
        <ele>465.2</ele>
        <time>2018-09-20T10:45:59Z</time>
      </trkpt>
      <trkpt lat="45.55143" lon="4.58469">
        <ele>465.7</ele>
        <time>2018-09-20T10:46:00Z</time>
      </trkpt>
      <trkpt lat="45.55158" lon="4.58477">
        <ele>466.4</ele>
        <time>2018-09-20T10:46:01Z</time>
      </trkpt>
      <trkpt lat="45.55173" lon="4.58485">
        <ele>466.8</ele>
        <time>2018-09-20T10:46:02Z</time>
      </trkpt>
      <trkpt lat="45.55182" lon="4.58492">
        <ele>466.8</ele>
      </trkpt>
      <trkpt lat="45.55196" lon="4.58503">
        <ele>467.4</ele>
      </trkpt>
      <trkpt lat="45.55202" lon="4.58508">
        <ele>467.4</ele>
      </trkpt>
      <trkpt lat="45.55214" lon="4.5852">
        <ele>467.2</ele>
        <time>2018-09-20T10:47:36Z</time>
      </trkpt>
      <trkpt lat="45.55224" lon="4.58535">
        <ele>466.9</ele>
        <time>2018-09-20T10:47:37Z</time>
      </trkpt>
      <trkpt lat="45.55231" lon="4.58548">
        <ele>465.8</ele>
      </trkpt>
      <trkpt lat="45.55239" lon="4.58573">
        <ele>465.6</ele>
      </trkpt>
      <trkpt lat="45.55241" lon="4.58586">
        <ele>466.2</ele>
        <time>2018-09-20T10:48:21Z</time>
      </trkpt>
      <trkpt lat="45.55244" lon="4.58611">
        <ele>468.5</ele>
      </trkpt>
      <trkpt lat="45.55243" lon="4.58635">
        <ele>470.4</ele>
      </trkpt>
      <trkpt lat="45.55236" lon="4.58673">
        <ele>471.5</ele>
      </trkpt>
      <trkpt lat="45.55231" lon="4.58693">
        <ele>471</ele>
        <time>2018-09-20T10:49:36Z</time>
      </trkpt>
      <trkpt lat="45.55227" lon="4.58712">
        <ele>470.5</ele>
      </trkpt>
      <trkpt lat="45.55221" lon="4.58732">
        <ele>470.5</ele>
      </trkpt>
      <trkpt lat="45.55216" lon="4.58749">
        <ele>470.8</ele>
      </trkpt>
      <trkpt lat="45.55207" lon="4.58772">
        <ele>471.6</ele>
      </trkpt>
      <trkpt lat="45.55195" lon="4.5879">
        <ele>471.4</ele>
      </trkpt>
      <trkpt lat="45.55186" lon="4.58798">
        <ele>471.9</ele>
      </trkpt>
      <trkpt lat="45.55178" lon="4.58806">
        <ele>472.5</ele>
      </trkpt>
      <trkpt lat="45.5517" lon="4.58813">
        <ele>473</ele>
        <time>2018-09-20T10:51:31Z</time>
      </trkpt>
      <trkpt lat="45.55157" lon="4.58818">
        <ele>473.3</ele>
      </trkpt>
      <trkpt lat="45.55147" lon="4.5882">
        <ele>473.6</ele>
      </trkpt>
      <trkpt lat="45.55137" lon="4.58821">
        <ele>473.7</ele>
        <time>2018-09-20T10:52:09Z</time>
      </trkpt>
      <trkpt lat="45.55125" lon="4.58822">
        <ele>473.8</ele>
        <time>2018-09-20T10:52:11Z</time>
      </trkpt>
      <trkpt lat="45.55113" lon="4.58823">
        <ele>473.9</ele>
        <time>2018-09-20T10:52:12Z</time>
      </trkpt>
      <trkpt lat="45.55102" lon="4.58823">
        <ele>474</ele>
        <time>2018-09-20T10:52:13Z</time>
      </trkpt>
      <trkpt lat="45.55077" lon="4.58822">
        <ele>474.3</ele>
        <time>2018-09-20T10:52:37Z</time>
      </trkpt>
      <trkpt lat="45.55064" lon="4.58822">
        <ele>474.6</ele>
        <time>2018-09-20T10:52:38Z</time>
      </trkpt>
      <trkpt lat="45.55056" lon="4.58821">
        <ele>474.7</ele>
        <time>2018-09-20T10:52:39Z</time>
      </trkpt>
      <trkpt lat="45.55041" lon="4.58821">
        <ele>474.9</ele>
        <time>2018-09-20T10:53:33Z</time>
      </trkpt>
      <trkpt lat="45.55029" lon="4.5882">
        <ele>475.1</ele>
        <time>2018-09-20T10:53:34Z</time>
      </trkpt>
      <trkpt lat="45.55014" lon="4.5882">
        <ele>475.1</ele>
        <time>2018-09-20T10:53:35Z</time>
      </trkpt>
      <trkpt lat="45.55003" lon="4.58821">
        <ele>475.1</ele>
        <time>2018-09-20T10:53:36Z</time>
      </trkpt>
      <trkpt lat="45.54992" lon="4.58823">
        <ele>475.3</ele>
      </trkpt>
      <trkpt lat="45.54982" lon="4.58825">
        <ele>475.4</ele>
      </trkpt>
      <trkpt lat="45.54969" lon="4.5883">
        <ele>475.6</ele>
      </trkpt>
      <trkpt lat="45.54956" lon="4.58834">
        <ele>475.4</ele>
      </trkpt>
      <trkpt lat="45.54947" lon="4.58837">
        <ele>475.3</ele>
      </trkpt>
      <trkpt lat="45.54929" lon="4.58844">
        <ele>474.9</ele>
      </trkpt>
      <trkpt lat="45.5491" lon="4.58851">
        <ele>474.6</ele>
      </trkpt>
      <trkpt lat="45.54901" lon="4.58855">
        <ele>474.7</ele>
      </trkpt>
      <trkpt lat="45.54888" lon="4.5886">
        <ele>474.7</ele>
      </trkpt>
      <trkpt lat="45.54873" lon="4.58867">
        <ele>473.9</ele>
      </trkpt>
      <trkpt lat="45.54859" lon="4.58874">
        <ele>473.7</ele>
      </trkpt>
      <trkpt lat="45.54848" lon="4.58881">
        <ele>473.9</ele>
      </trkpt>
      <trkpt lat="45.5483" lon="4.58894">
        <ele>474.2</ele>
      </trkpt>
      <trkpt lat="45.54821" lon="4.58904">
        <ele>474.4</ele>
      </trkpt>
      <trkpt lat="45.54808" lon="4.5892">
        <ele>474.4</ele>
      </trkpt>
      <trkpt lat="45.54797" lon="4.58939">
        <ele>474.2</ele>
      </trkpt>
      <trkpt lat="45.54792" lon="4.58957">
        <ele>474</ele>
      </trkpt>
      <trkpt lat="45.54791" lon="4.58991">
        <ele>474</ele>
      </trkpt>
      <trkpt lat="45.54795" lon="4.59013">
        <ele>473.5</ele>
      </trkpt>
      <trkpt lat="45.54801" lon="4.59027">
        <ele>473</ele>
      </trkpt>
      <trkpt lat="45.54809" lon="4.59042">
        <ele>472.6</ele>
      </trkpt>
      <trkpt lat="45.54818" lon="4.59054">
        <ele>472.5</ele>
      </trkpt>
      <trkpt lat="45.54825" lon="4.59058">
        <ele>472.6</ele>
        <time>2018-09-20T10:59:36Z</time>
      </trkpt>
      <trkpt lat="45.54831" lon="4.59057">
        <ele>472.9</ele>
        <time>2018-09-20T10:59:37Z</time>
      </trkpt>
      <trkpt lat="45.54836" lon="4.59065">
        <ele>472.8</ele>
        <time>2018-09-20T10:59:38Z</time>
      </trkpt>
      <trkpt lat="45.54846" lon="4.59068">
        <ele>473</ele>
        <time>2018-09-20T10:59:39Z</time>
      </trkpt>
      <trkpt lat="45.54858" lon="4.59073">
        <ele>473.3</ele>
      </trkpt>
      <trkpt lat="45.54877" lon="4.5908">
        <ele>472.6</ele>
      </trkpt>
      <trkpt lat="45.54881" lon="4.5907">
        <ele>473.1</ele>
      </trkpt>
      <trkpt lat="45.54887" lon="4.59071">
        <ele>472.9</ele>
        <time>2018-09-20T11:00:33Z</time>
      </trkpt>
    </trkseg>
  </trk>
</gpx>